createdAt,value
2017-03-26T00:00:26.586Z,22.86
2017-03-26T00:01:26.934Z,22.82
2017-03-26T00:02:26.653Z,22.97
2017-03-26T00:03:26.984Z,22.92
2017-03-26T00:04:26.390Z,22.9
2017-03-26T00:05:27.042Z,22.85
2017-03-26T00:06:27.070Z,22.9
2017-03-26T00:07:27.098Z,22.91
2017-03-26T00:08:26.499Z,22.83
2017-03-26T00:09:26.841Z,22.9
2017-03-26T00:10:27.182Z,22.9
2017-03-26T00:11:27.223Z,22.86
2017-03-26T00:12:26.928Z,22.8
2017-03-26T00:13:26.640Z,22.86
2017-03-26T00:14:27.288Z,22.88
2017-03-26T00:15:27.326Z,22.79
2017-03-26T00:16:27.033Z,22.79
2017-03-26T00:17:27.371Z,22.77
2017-03-26T00:18:27.091Z,22.82
2017-03-26T00:19:27.432Z,22.83
2017-03-26T00:20:27.458Z,22.77
2017-03-26T00:21:27.482Z,22.73
2017-03-26T00:22:27.198Z,22.76
2017-03-26T00:23:27.232Z,22.75
2017-03-26T00:24:27.257Z,22.72
2017-03-26T00:25:27.289Z,22.79
2017-03-26T00:26:27.317Z,22.77
2017-03-26T00:27:27.647Z,22.72
2017-03-26T00:28:27.059Z,22.65
2017-03-26T00:29:27.400Z,22.68
2017-03-26T00:30:27.472Z,22.75
2017-03-26T00:31:27.765Z,22.72
2017-03-26T00:32:27.507Z,22.68
2017-03-26T00:33:27.506Z,22.72
2017-03-26T00:34:27.839Z,22.64
2017-03-26T00:35:27.880Z,22.75
2017-03-26T00:36:27.589Z,22.72
2017-03-26T00:37:27.930Z,22.55
2017-03-26T00:38:27.968Z,22.76
2017-03-26T00:39:27.983Z,22.7
2017-03-26T00:40:28.019Z,22.68
2017-03-26T00:41:28.046Z,22.68
2017-03-26T00:42:27.762Z,22.67
2017-03-26T00:43:28.096Z,22.62
2017-03-26T00:44:28.124Z,22.61
2017-03-26T00:45:28.156Z,22.6
2017-03-26T00:46:27.873Z,22.64
2017-03-26T00:47:28.206Z,22.6
2017-03-26T00:48:27.920Z,22.65
2017-03-26T00:49:27.954Z,22.58
2017-03-26T00:50:27.980Z,22.62
2017-03-26T00:51:28.004Z,22.61
2017-03-26T00:52:28.349Z,22.64
2017-03-26T00:53:28.376Z,22.65
2017-03-26T00:54:28.082Z,22.6
2017-03-26T00:55:28.427Z,22.62
2017-03-26T00:56:28.452Z,22.55
2017-03-26T00:57:28.161Z,22.6
2017-03-26T00:58:28.591Z,22.57
2017-03-26T00:59:28.223Z,22.62
2017-03-26T01:00:27.947Z,22.54
2017-03-26T01:01:28.601Z,22.58
2017-03-26T01:02:28.613Z,22.58
2017-03-26T01:03:28.338Z,22.57
2017-03-26T01:04:28.682Z,22.6
2017-03-26T01:05:28.383Z,22.61
2017-03-26T01:06:28.732Z,22.57
2017-03-26T01:07:28.449Z,22.45
2017-03-26T01:08:28.474Z,22.54
2017-03-26T01:09:28.821Z,22.51
2017-03-26T01:10:28.526Z,22.54
2017-03-26T01:11:28.560Z,22.51
2017-03-26T01:12:28.896Z,22.49
2017-03-26T01:13:28.618Z,22.51
2017-03-26T01:14:28.949Z,22.49
2017-03-26T01:15:28.666Z,22.57
2017-03-26T01:16:28.699Z,22.4
2017-03-26T01:17:29.032Z,22.51
2017-03-26T01:18:29.071Z,22.42
2017-03-26T01:19:29.089Z,22.51
2017-03-26T01:20:28.824Z,22.46
2017-03-26T01:21:28.839Z,22.45
2017-03-26T01:22:28.861Z,22.43
2017-03-26T01:23:29.213Z,22.43
2017-03-26T01:24:28.918Z,22.49
2017-03-26T01:25:29.262Z,22.47
2017-03-26T01:26:29.283Z,22.47
2017-03-26T01:27:29.316Z,22.39
2017-03-26T01:28:29.340Z,22.43
2017-03-26T01:29:29.054Z,22.39
2017-03-26T01:30:29.395Z,22.39
2017-03-26T01:31:29.423Z,22.39
2017-03-26T01:32:29.452Z,22.45
2017-03-26T01:33:29.161Z,22.39
2017-03-26T01:34:29.500Z,22.39
2017-03-26T01:35:29.538Z,22.37
2017-03-26T01:36:29.247Z,22.37
2017-03-26T01:37:29.276Z,22.37
2017-03-26T01:38:29.620Z,22.42
2017-03-26T01:39:29.648Z,22.35
2017-03-26T01:40:29.673Z,22.4
2017-03-26T01:41:29.385Z,22.42
2017-03-26T01:42:29.723Z,22.36
2017-03-26T01:43:29.490Z,22.31
2017-03-26T01:44:29.472Z,22.4
2017-03-26T01:45:29.805Z,22.36
2017-03-26T01:46:29.834Z,22.4
2017-03-26T01:47:29.526Z,22.39
2017-03-26T01:48:29.890Z,22.33
2017-03-26T01:49:29.916Z,22.3
2017-03-26T01:50:29.944Z,22.42
2017-03-26T01:51:29.972Z,22.4
2017-03-26T01:52:29.935Z,22.24
2017-03-26T01:53:30.034Z,22.24
2017-03-26T01:54:29.756Z,22.28
2017-03-26T01:55:30.080Z,22.28
2017-03-26T01:56:30.108Z,22.33
2017-03-26T01:57:30.079Z,22.33
2017-03-26T01:58:30.162Z,22.3
2017-03-26T01:59:30.208Z,22.31
2017-03-26T02:00:30.220Z,22.28
2017-03-26T02:01:30.250Z,22.24
2017-03-26T02:02:30.214Z,22.25
2017-03-26T02:03:29.991Z,22.28
2017-03-26T02:04:30.329Z,22.27
2017-03-26T02:05:30.363Z,22.31
2017-03-26T02:06:30.073Z,22.24
2017-03-26T02:07:30.660Z,22.31
2017-03-26T02:08:30.434Z,22.21
2017-03-26T02:09:30.466Z,22.21
2017-03-26T02:10:30.499Z,22.25
2017-03-26T02:11:29.897Z,22.27
2017-03-26T02:12:30.796Z,22.24
2017-03-26T02:13:30.266Z,22.21
2017-03-26T02:14:30.295Z,22.21
2017-03-26T02:15:30.632Z,22.21
2017-03-26T02:16:30.036Z,22.22
2017-03-26T02:17:30.932Z,22.18
2017-03-26T02:18:30.406Z,22.14
2017-03-26T02:19:30.113Z,22.2
2017-03-26T02:20:30.454Z,22.18
2017-03-26T02:21:30.483Z,22.21
2017-03-26T02:22:31.072Z,22.2
2017-03-26T02:23:30.850Z,22.17
2017-03-26T02:24:30.885Z,22.18
2017-03-26T02:25:30.897Z,22.18
2017-03-26T02:26:30.935Z,22.17
2017-03-26T02:27:31.213Z,22.07
2017-03-26T02:28:30.989Z,22.17
2017-03-26T02:29:30.710Z,22.15
2017-03-26T02:30:30.728Z,22.22
2017-03-26T02:31:30.443Z,22.18
2017-03-26T02:32:31.035Z,22.17
2017-03-26T02:33:30.496Z,22.1
2017-03-26T02:34:30.530Z,22.07
2017-03-26T02:35:30.866Z,22.18
2017-03-26T02:36:31.207Z,22.12
2017-03-26T02:37:31.174Z,22.12
2017-03-26T02:38:30.950Z,22.17
2017-03-26T02:39:30.660Z,22.14
2017-03-26T02:40:30.993Z,22.06
2017-03-26T02:41:31.030Z,22.12
2017-03-26T02:42:31.618Z,22.06
2017-03-26T02:43:31.089Z,22.03
2017-03-26T02:44:31.113Z,22.07
2017-03-26T02:45:31.138Z,22.14
2017-03-26T02:46:31.487Z,22.07
2017-03-26T02:47:31.189Z,22.06
2017-03-26T02:48:30.924Z,22.09
2017-03-26T02:49:31.256Z,22.12
2017-03-26T02:50:31.586Z,22.03
2017-03-26T02:51:30.990Z,22.09
2017-03-26T02:52:31.639Z,22.09
2017-03-26T02:53:31.360Z,22.1
2017-03-26T02:54:31.393Z,22.06
2017-03-26T02:55:31.721Z,22.14
2017-03-26T02:56:31.750Z,22.06
2017-03-26T02:57:31.787Z,22.09
2017-03-26T02:58:31.186Z,22.03
2017-03-26T02:59:31.847Z,22.02
2017-03-26T03:00:31.860Z,22.03
2017-03-26T03:01:31.882Z,22.05
2017-03-26T03:02:31.915Z,22.1
2017-03-26T03:03:31.624Z,22.02
2017-03-26T03:04:31.660Z,22.06
2017-03-26T03:05:31.681Z,21.99
2017-03-26T03:06:32.028Z,22.02
2017-03-26T03:07:32.050Z,22.06
2017-03-26T03:08:31.766Z,22.03
2017-03-26T03:09:31.796Z,22.07
2017-03-26T03:10:31.824Z,22.05
2017-03-26T03:11:31.848Z,22.07
2017-03-26T03:12:31.875Z,22.14
2017-03-26T03:13:31.898Z,22.02
2017-03-26T03:14:31.927Z,22.05
2017-03-26T03:15:31.957Z,21.98
2017-03-26T03:16:32.285Z,22.05
2017-03-26T03:17:32.325Z,22.03
2017-03-26T03:18:32.352Z,22.05
2017-03-26T03:19:32.376Z,22.03
2017-03-26T03:20:32.411Z,22.06
2017-03-26T03:21:32.469Z,21.98
2017-03-26T03:22:32.454Z,22.05
2017-03-26T03:23:32.494Z,22.06
2017-03-26T03:24:32.510Z,21.96
2017-03-26T03:25:32.231Z,22.03
2017-03-26T03:26:32.251Z,22.02
2017-03-26T03:27:31.969Z,22.03
2017-03-26T03:28:32.310Z,21.92
2017-03-26T03:29:32.646Z,22.05
2017-03-26T03:30:32.367Z,22
2017-03-26T03:31:32.716Z,22
2017-03-26T03:32:32.412Z,21.9
2017-03-26T03:33:32.760Z,21.9
2017-03-26T03:34:32.795Z,21.84
2017-03-26T03:35:32.500Z,21.9
2017-03-26T03:36:32.519Z,21.92
2017-03-26T03:37:32.554Z,21.88
2017-03-26T03:38:32.894Z,21.88
2017-03-26T03:39:32.916Z,21.98
2017-03-26T03:40:32.633Z,21.94
2017-03-26T03:41:32.664Z,21.96
2017-03-26T03:42:33.008Z,21.88
2017-03-26T03:43:33.033Z,21.92
2017-03-26T03:44:33.061Z,21.88
2017-03-26T03:45:32.774Z,21.88
2017-03-26T03:46:32.793Z,22
2017-03-26T03:47:33.141Z,21.98
2017-03-26T03:48:33.161Z,21.8
2017-03-26T03:49:33.192Z,21.98
2017-03-26T03:50:32.911Z,21.9
2017-03-26T03:51:33.248Z,21.82
2017-03-26T03:52:32.960Z,22
2017-03-26T03:53:33.306Z,21.92
2017-03-26T03:54:33.018Z,21.83
2017-03-26T03:55:33.355Z,21.88
2017-03-26T03:56:33.381Z,21.86
2017-03-26T03:57:33.408Z,21.83
2017-03-26T03:58:33.436Z,21.82
2017-03-26T03:59:33.469Z,21.9
2017-03-26T04:00:33.485Z,21.82
2017-03-26T04:01:33.205Z,21.82
2017-03-26T04:02:33.542Z,21.9
2017-03-26T04:03:33.831Z,21.91
2017-03-26T04:04:33.596Z,21.86
2017-03-26T04:05:33.002Z,21.83
2017-03-26T04:06:33.337Z,21.84
2017-03-26T04:07:33.670Z,21.96
2017-03-26T04:08:33.971Z,21.92
2017-03-26T04:09:33.433Z,21.83
2017-03-26T04:10:33.143Z,21.96
2017-03-26T04:11:33.473Z,21.9
2017-03-26T04:12:33.503Z,21.96
2017-03-26T04:13:33.796Z,21.83
2017-03-26T04:14:33.873Z,21.83
2017-03-26T04:15:33.894Z,21.77
2017-03-26T04:16:33.926Z,21.84
2017-03-26T04:17:33.951Z,21.84
2017-03-26T04:18:34.487Z,21.86
2017-03-26T04:19:34.011Z,21.83
2017-03-26T04:20:34.045Z,21.83
2017-03-26T04:21:33.745Z,21.86
2017-03-26T04:22:33.767Z,21.72
2017-03-26T04:23:33.742Z,21.86
2017-03-26T04:24:34.141Z,21.84
2017-03-26T04:25:33.849Z,21.84
2017-03-26T04:26:34.193Z,21.9
2017-03-26T04:27:33.596Z,21.86
2017-03-26T04:28:34.191Z,21.82
2017-03-26T04:29:34.284Z,21.84
2017-03-26T04:30:34.305Z,21.86
2017-03-26T04:31:34.032Z,21.86
2017-03-26T04:32:34.357Z,21.79
2017-03-26T04:33:34.650Z,21.77
2017-03-26T04:34:34.411Z,21.72
2017-03-26T04:35:34.432Z,21.83
2017-03-26T04:36:34.464Z,21.77
2017-03-26T04:37:34.490Z,21.74
2017-03-26T04:38:34.770Z,21.83
2017-03-26T04:39:34.239Z,21.75
2017-03-26T04:40:34.568Z,21.75
2017-03-26T04:41:34.285Z,21.71
2017-03-26T04:42:34.318Z,21.74
2017-03-26T04:43:34.906Z,21.74
2017-03-26T04:44:34.679Z,21.79
2017-03-26T04:45:34.400Z,21.69
2017-03-26T04:46:34.728Z,21.72
2017-03-26T04:47:34.450Z,21.75
2017-03-26T04:48:35.033Z,21.75
2017-03-26T04:49:34.810Z,21.74
2017-03-26T04:50:34.846Z,21.71
2017-03-26T04:51:34.868Z,21.74
2017-03-26T04:52:34.913Z,21.69
2017-03-26T04:53:35.174Z,21.68
2017-03-26T04:54:34.949Z,21.71
2017-03-26T04:55:34.979Z,21.69
2017-03-26T04:56:35.012Z,21.71
2017-03-26T04:57:35.033Z,21.72
2017-03-26T04:58:35.314Z,21.65
2017-03-26T04:59:35.085Z,21.68
2017-03-26T05:00:35.107Z,21.74
2017-03-26T05:01:35.140Z,21.67
2017-03-26T05:02:35.165Z,21.65
2017-03-26T05:03:35.445Z,21.68
2017-03-26T05:04:34.898Z,21.71
2017-03-26T05:05:35.251Z,21.67
2017-03-26T05:06:35.277Z,21.71
2017-03-26T05:07:35.307Z,21.69
2017-03-26T05:08:35.589Z,21.67
2017-03-26T05:09:35.045Z,21.58
2017-03-26T05:10:35.379Z,21.65
2017-03-26T05:11:35.102Z,21.59
2017-03-26T05:12:35.436Z,21.54
2017-03-26T05:13:35.464Z,21.62
2017-03-26T05:14:35.500Z,21.62
2017-03-26T05:15:35.207Z,21.54
2017-03-26T05:16:35.235Z,21.58
2017-03-26T05:17:35.256Z,21.56
2017-03-26T05:18:35.605Z,21.54
2017-03-26T05:19:35.617Z,21.62
2017-03-26T05:20:35.338Z,21.56
2017-03-26T05:21:35.685Z,21.58
2017-03-26T05:22:35.706Z,21.69
2017-03-26T05:23:35.743Z,21.54
2017-03-26T05:24:35.440Z,21.69
2017-03-26T05:25:35.789Z,21.69
2017-03-26T05:26:35.823Z,21.62
2017-03-26T05:27:35.527Z,21.72
2017-03-26T05:28:35.557Z,21.77
2017-03-26T05:29:35.586Z,21.72
2017-03-26T05:30:35.925Z,21.71
2017-03-26T05:31:35.325Z,21.77
2017-03-26T05:32:35.668Z,21.82
2017-03-26T05:33:35.684Z,21.83
2017-03-26T05:34:36.028Z,21.9
2017-03-26T05:35:35.737Z,21.77
2017-03-26T05:36:35.774Z,21.88
2017-03-26T05:37:35.795Z,21.92
2017-03-26T05:38:35.835Z,21.86
2017-03-26T05:39:36.159Z,21.82
2017-03-26T05:40:36.192Z,21.86
2017-03-26T05:41:36.217Z,21.94
2017-03-26T05:42:35.619Z,21.98
2017-03-26T05:43:36.275Z,21.92
2017-03-26T05:44:35.984Z,21.99
2017-03-26T05:45:36.016Z,21.9
2017-03-26T05:46:36.043Z,21.98
2017-03-26T05:47:36.066Z,21.96
2017-03-26T05:48:36.403Z,22.03
2017-03-26T05:49:36.431Z,22
2017-03-26T05:50:36.460Z,21.99
2017-03-26T05:51:36.482Z,22.03
2017-03-26T05:52:36.510Z,22.06
2017-03-26T05:53:36.543Z,22.07
2017-03-26T05:54:36.570Z,22.06
2017-03-26T05:55:36.592Z,22.05
2017-03-26T05:56:36.628Z,22.07
2017-03-26T05:57:36.335Z,22.12
2017-03-26T05:58:36.674Z,22.15
2017-03-26T05:59:36.700Z,22.15
2017-03-26T06:00:36.412Z,22.12
2017-03-26T06:01:36.761Z,22.12
2017-03-26T06:02:36.782Z,22.22
2017-03-26T06:03:36.499Z,22.2
2017-03-26T06:04:36.835Z,22.22
2017-03-26T06:05:36.547Z,22.24
2017-03-26T06:06:36.576Z,22.21
2017-03-26T06:07:36.609Z,22.25
2017-03-26T06:08:36.645Z,22.24
2017-03-26T06:09:36.663Z,22.27
2017-03-26T06:10:36.680Z,22.3
2017-03-26T06:11:37.015Z,22.27
2017-03-26T06:12:37.058Z,22.28
2017-03-26T06:13:36.772Z,22.27
2017-03-26T06:14:37.114Z,22.4
2017-03-26T06:15:36.822Z,22.24
2017-03-26T06:16:36.852Z,22.37
2017-03-26T06:17:37.208Z,22.4
2017-03-26T06:18:36.917Z,22.4
2017-03-26T06:19:37.242Z,22.36
2017-03-26T06:20:36.958Z,22.45
2017-03-26T06:21:37.292Z,22.36
2017-03-26T06:22:37.322Z,22.39
2017-03-26T06:23:37.414Z,22.36
2017-03-26T06:24:37.382Z,22.4
2017-03-26T06:25:37.405Z,22.4
2017-03-26T06:26:37.119Z,22.4
2017-03-26T06:27:37.145Z,22.47
2017-03-26T06:28:37.489Z,22.51
2017-03-26T06:29:37.194Z,22.45
2017-03-26T06:30:37.539Z,22.4
2017-03-26T06:31:37.258Z,22.49
2017-03-26T06:32:37.594Z,22.51
2017-03-26T06:33:37.634Z,22.42
2017-03-26T06:34:37.649Z,22.42
2017-03-26T06:35:37.667Z,22.47
2017-03-26T06:36:37.392Z,22.51
2017-03-26T06:37:37.731Z,22.54
2017-03-26T06:38:37.765Z,22.52
2017-03-26T06:39:37.473Z,22.51
2017-03-26T06:40:37.497Z,22.54
2017-03-26T06:41:37.835Z,22.49
2017-03-26T06:42:37.560Z,22.49
2017-03-26T06:43:37.893Z,22.52
2017-03-26T06:44:37.920Z,22.52
2017-03-26T06:45:37.367Z,22.49
2017-03-26T06:46:37.979Z,22.54
2017-03-26T06:47:37.686Z,22.49
2017-03-26T06:48:38.045Z,22.51
2017-03-26T06:49:37.745Z,22.51
2017-03-26T06:50:38.081Z,22.51
2017-03-26T06:51:38.110Z,22.6
2017-03-26T06:52:38.139Z,22.43
2017-03-26T06:53:38.163Z,22.61
2017-03-26T06:54:37.883Z,22.52
2017-03-26T06:55:38.217Z,22.61
2017-03-26T06:56:38.245Z,22.58
2017-03-26T06:57:37.963Z,22.58
2017-03-26T06:58:38.320Z,22.58
2017-03-26T06:59:38.328Z,22.58
2017-03-26T07:00:38.353Z,22.58
2017-03-26T07:01:38.065Z,22.58
2017-03-26T07:02:38.100Z,22.62
2017-03-26T07:03:38.459Z,22.61
2017-03-26T07:04:38.467Z,22.64
2017-03-26T07:05:38.176Z,22.64
2017-03-26T07:06:38.223Z,22.62
2017-03-26T07:07:37.981Z,22.65
2017-03-26T07:08:38.582Z,22.65
2017-03-26T07:09:38.852Z,22.65
2017-03-26T07:10:38.634Z,22.6
2017-03-26T07:11:38.658Z,22.65
2017-03-26T07:12:38.684Z,22.68
2017-03-26T07:13:38.707Z,22.72
2017-03-26T07:14:38.672Z,22.62
2017-03-26T07:15:38.140Z,22.57
2017-03-26T07:16:38.789Z,22.72
2017-03-26T07:17:38.809Z,22.76
2017-03-26T07:18:38.550Z,22.62
2017-03-26T07:19:39.129Z,22.72
2017-03-26T07:20:38.899Z,22.7
2017-03-26T07:21:38.621Z,22.73
2017-03-26T07:22:38.958Z,22.67
2017-03-26T07:23:38.676Z,22.76
2017-03-26T07:24:39.264Z,22.7
2017-03-26T07:25:39.043Z,22.76
2017-03-26T07:26:38.753Z,22.7
2017-03-26T07:27:38.780Z,22.68
2017-03-26T07:28:38.506Z,22.73
2017-03-26T07:29:39.089Z,22.76
2017-03-26T07:30:39.167Z,22.86
2017-03-26T07:31:39.201Z,22.94
2017-03-26T07:32:38.923Z,23.33
2017-03-26T07:33:39.254Z,23.98
2017-03-26T07:34:39.565Z,24.6
2017-03-26T07:35:38.692Z,25.39
2017-03-26T07:36:39.025Z,25.9
2017-03-26T07:37:39.365Z,26.37
2017-03-26T07:38:39.398Z,26.85
2017-03-26T07:39:39.358Z,27.29
2017-03-26T07:40:38.828Z,27.72
2017-03-26T07:41:39.168Z,27.93
2017-03-26T07:42:39.199Z,28.3
2017-03-26T07:43:39.544Z,28.62
2017-03-26T07:44:39.810Z,28.9
2017-03-26T07:45:39.590Z,29.15
2017-03-26T07:46:39.619Z,29.3
2017-03-26T07:47:39.637Z,29.41
2017-03-26T07:48:39.681Z,29.57
2017-03-26T07:49:39.654Z,29.6
2017-03-26T07:50:39.747Z,29.41
2017-03-26T07:51:39.139Z,29.11
2017-03-26T07:52:39.476Z,28.62
2017-03-26T07:53:39.822Z,28.34
2017-03-26T07:54:40.107Z,27.93
2017-03-26T07:55:39.876Z,27.66
2017-03-26T07:56:39.911Z,27.36
2017-03-26T07:57:39.308Z,27.07
2017-03-26T07:58:39.970Z,26.89
2017-03-26T07:59:40.242Z,26.66
2017-03-26T08:00:39.714Z,26.52
2017-03-26T08:01:40.054Z,26.35
2017-03-26T08:02:40.076Z,26.2
2017-03-26T08:03:40.112Z,26.12
2017-03-26T08:04:40.448Z,25.9
2017-03-26T08:05:40.160Z,25.94
2017-03-26T08:06:40.199Z,25.82
2017-03-26T08:07:40.227Z,25.7
2017-03-26T08:08:40.249Z,25.54
2017-03-26T08:09:40.544Z,25.55
2017-03-26T08:10:39.997Z,25.47
2017-03-26T08:11:40.023Z,25.38
2017-03-26T08:12:40.063Z,25.32
2017-03-26T08:13:40.404Z,25.38
2017-03-26T08:14:40.676Z,25.2
2017-03-26T08:15:39.829Z,25.15
2017-03-26T08:16:40.162Z,25.08
2017-03-26T08:17:40.511Z,25.08
2017-03-26T08:18:40.548Z,24.96
2017-03-26T08:19:40.568Z,24.96
2017-03-26T08:20:40.285Z,24.91
2017-03-26T08:21:40.315Z,24.85
2017-03-26T08:22:40.654Z,24.81
2017-03-26T08:23:40.688Z,24.77
2017-03-26T08:24:40.727Z,24.77
2017-03-26T08:25:40.745Z,24.71
2017-03-26T08:26:40.453Z,24.6
2017-03-26T08:27:40.803Z,24.65
2017-03-26T08:28:40.516Z,24.57
2017-03-26T08:29:40.596Z,24.55
2017-03-26T08:30:40.877Z,24.45
2017-03-26T08:31:40.911Z,24.45
2017-03-26T08:32:40.937Z,24.55
2017-03-26T08:33:40.972Z,24.53
2017-03-26T08:34:40.992Z,24.45
2017-03-26T08:35:41.014Z,24.37
2017-03-26T08:36:41.051Z,24.37
2017-03-26T08:37:41.090Z,24.46
2017-03-26T08:38:41.112Z,24.43
2017-03-26T08:39:41.136Z,24.32
2017-03-26T08:40:41.158Z,24.28
2017-03-26T08:41:40.882Z,24.31
2017-03-26T08:42:41.223Z,24.28
2017-03-26T08:43:41.250Z,24.25
2017-03-26T08:44:41.284Z,24.28
2017-03-26T08:45:41.306Z,24.3
2017-03-26T08:46:41.333Z,24.22
2017-03-26T08:47:41.055Z,24.16
2017-03-26T08:48:41.396Z,24.15
2017-03-26T08:49:41.426Z,24.09
2017-03-26T08:50:41.443Z,24.15
2017-03-26T08:51:41.165Z,24.06
2017-03-26T08:52:40.876Z,24.03
2017-03-26T08:53:41.218Z,24.02
2017-03-26T08:54:41.243Z,24.02
2017-03-26T08:55:41.595Z,24
2017-03-26T08:56:41.612Z,23.98
2017-03-26T08:57:41.657Z,23.94
2017-03-26T08:58:41.365Z,24
2017-03-26T08:59:41.378Z,24.05
2017-03-26T09:00:41.731Z,24.12
2017-03-26T09:01:41.444Z,24.16
2017-03-26T09:02:41.781Z,24.28
2017-03-26T09:03:41.817Z,24.5
2017-03-26T09:04:41.522Z,24.77
2017-03-26T09:05:41.931Z,25.15
2017-03-26T09:06:41.892Z,25.35
2017-03-26T09:07:41.613Z,25.58
2017-03-26T09:08:41.957Z,25.76
2017-03-26T09:09:41.667Z,25.9
2017-03-26T09:10:42.263Z,26.07
2017-03-26T09:11:42.035Z,26.1
2017-03-26T09:12:42.065Z,26.29
2017-03-26T09:13:41.786Z,26.3
2017-03-26T09:14:42.116Z,26.37
2017-03-26T09:15:42.398Z,26.37
2017-03-26T09:16:42.179Z,26.39
2017-03-26T09:17:41.893Z,26.39
2017-03-26T09:18:42.237Z,26.32
2017-03-26T09:19:42.250Z,26.17
2017-03-26T09:20:42.224Z,26.02
2017-03-26T09:21:42.313Z,25.91
2017-03-26T09:22:42.068Z,25.76
2017-03-26T09:23:42.374Z,25.62
2017-03-26T09:24:42.093Z,25.5
2017-03-26T09:25:42.370Z,25.42
2017-03-26T09:26:42.458Z,25.25
2017-03-26T09:27:42.492Z,25.18
2017-03-26T09:28:42.209Z,25.18
2017-03-26T09:29:42.541Z,25
2017-03-26T09:30:42.824Z,24.96
2017-03-26T09:31:42.598Z,24.9
2017-03-26T09:32:42.631Z,24.87
2017-03-26T09:33:42.652Z,24.77
2017-03-26T09:34:42.688Z,24.83
2017-03-26T09:35:42.956Z,24.73
2017-03-26T09:36:42.737Z,24.67
2017-03-26T09:37:42.148Z,24.55
2017-03-26T09:38:42.477Z,24.57
2017-03-26T09:39:42.824Z,24.55
2017-03-26T09:40:43.104Z,24.58
2017-03-26T09:41:42.904Z,24.55
2017-03-26T09:42:42.598Z,24.46
2017-03-26T09:43:42.932Z,24.43
2017-03-26T09:44:42.657Z,24.4
2017-03-26T09:45:43.248Z,24.34
2017-03-26T09:46:43.022Z,24.39
2017-03-26T09:47:43.054Z,24.37
2017-03-26T09:48:43.072Z,24.45
2017-03-26T09:49:42.797Z,24.32
2017-03-26T09:50:43.392Z,24.39
2017-03-26T09:51:43.174Z,24.32
2017-03-26T09:52:43.199Z,24.42
2017-03-26T09:53:43.231Z,24.34
2017-03-26T09:54:43.247Z,24.28
2017-03-26T09:55:43.528Z,24.34
2017-03-26T09:56:43.301Z,24.34
2017-03-26T09:57:43.026Z,24.32
2017-03-26T09:58:43.408Z,24.39
2017-03-26T09:59:43.075Z,24.3
2017-03-26T10:00:43.669Z,24.39
2017-03-26T10:01:43.438Z,24.35
2017-03-26T10:02:43.163Z,24.37
2017-03-26T10:03:43.510Z,24.32
2017-03-26T10:04:43.536Z,24.32
2017-03-26T10:05:43.560Z,24.4
2017-03-26T10:06:43.277Z,24.31
2017-03-26T10:07:43.622Z,24.35
2017-03-26T10:08:43.340Z,24.3
2017-03-26T10:09:43.680Z,24.24
2017-03-26T10:10:43.393Z,24.3
2017-03-26T10:11:43.733Z,24.35
2017-03-26T10:12:43.762Z,24.34
2017-03-26T10:13:43.796Z,24.35
2017-03-26T10:14:43.507Z,24.31
2017-03-26T10:15:43.842Z,24.37
2017-03-26T10:16:43.876Z,24.43
2017-03-26T10:17:43.594Z,24.4
2017-03-26T10:18:43.930Z,24.35
2017-03-26T10:19:43.638Z,24.35
2017-03-26T10:20:43.988Z,24.43
2017-03-26T10:21:44.016Z,24.37
2017-03-26T10:22:56.463Z,24.45
2017-03-26T10:23:43.766Z,24.47
2017-03-26T10:24:44.099Z,24.34
2017-03-26T10:25:43.804Z,24.35
2017-03-26T10:26:44.155Z,24.35
2017-03-26T10:27:43.869Z,24.39
2017-03-26T10:28:44.214Z,24.4
2017-03-26T10:29:44.240Z,24.45
2017-03-26T10:30:44.267Z,24.42
2017-03-26T10:31:43.985Z,24.4
2017-03-26T10:32:44.334Z,24.42
2017-03-26T10:33:44.357Z,24.45
2017-03-26T10:34:44.380Z,24.4
2017-03-26T10:35:44.412Z,24.42
2017-03-26T10:36:44.460Z,24.34
2017-03-26T10:37:44.471Z,24.31
2017-03-26T10:38:44.178Z,24.3
2017-03-26T10:39:44.515Z,24.4
2017-03-26T10:40:44.547Z,24.35
2017-03-26T10:41:44.582Z,24.25
2017-03-26T10:42:44.645Z,24.39
2017-03-26T10:43:44.647Z,24.28
2017-03-26T10:44:44.671Z,24.24
2017-03-26T10:45:44.703Z,24.28
2017-03-26T10:46:44.716Z,24.25
2017-03-26T10:47:44.757Z,24.22
2017-03-26T10:48:44.795Z,24.22
2017-03-26T10:49:44.805Z,24.18
2017-03-26T10:50:44.844Z,24.28
2017-03-26T10:51:44.855Z,24.27
2017-03-26T10:52:44.892Z,24.28
2017-03-26T10:53:44.922Z,24.28
2017-03-26T10:54:44.645Z,24.28
2017-03-26T10:55:44.974Z,24.21
2017-03-26T10:56:44.380Z,24.22
2017-03-26T10:57:45.038Z,24.31
2017-03-26T10:58:45.062Z,24.28
2017-03-26T10:59:45.098Z,24.28
2017-03-26T11:00:45.115Z,24.27
2017-03-26T11:01:45.155Z,24.21
2017-03-26T11:02:45.176Z,24.27
2017-03-26T11:03:45.210Z,24.24
2017-03-26T11:04:45.234Z,24.24
2017-03-26T11:05:45.270Z,24.16
2017-03-26T11:06:44.980Z,24.18
2017-03-26T11:07:45.018Z,24.2
2017-03-26T11:08:45.352Z,24.2
2017-03-26T11:09:45.374Z,24.22
2017-03-26T11:10:45.401Z,24.15
2017-03-26T11:11:45.430Z,24.16
2017-03-26T11:12:45.147Z,24.2
2017-03-26T11:13:45.176Z,24.21
2017-03-26T11:14:45.225Z,24.27
2017-03-26T11:15:45.538Z,24.21
2017-03-26T11:16:45.570Z,24.16
2017-03-26T11:17:45.296Z,24.16
2017-03-26T11:18:45.649Z,24.16
2017-03-26T11:19:45.670Z,24.21
2017-03-26T11:20:45.698Z,24.22
2017-03-26T11:21:45.722Z,24.3
2017-03-26T11:22:45.748Z,24.25
2017-03-26T11:23:45.460Z,24.18
2017-03-26T11:24:45.811Z,24.22
2017-03-26T11:25:45.829Z,24.24
2017-03-26T11:26:45.870Z,24.3
2017-03-26T11:27:45.583Z,24.28
2017-03-26T11:28:45.620Z,24.31
2017-03-26T11:29:45.944Z,24.27
2017-03-26T11:30:45.982Z,24.22
2017-03-26T11:31:45.942Z,24.32
2017-03-26T11:32:46.036Z,24.35
2017-03-26T11:33:45.752Z,24.39
2017-03-26T11:34:46.098Z,24.35
2017-03-26T11:35:46.129Z,24.4
2017-03-26T11:36:46.405Z,24.4
2017-03-26T11:37:46.182Z,24.46
2017-03-26T11:38:46.203Z,24.57
2017-03-26T11:39:45.919Z,24.47
2017-03-26T11:40:45.953Z,24.45
2017-03-26T11:41:46.534Z,24.6
2017-03-26T11:42:46.319Z,24.53
2017-03-26T11:43:46.359Z,24.61
2017-03-26T11:44:46.074Z,24.64
2017-03-26T11:45:46.408Z,24.65
2017-03-26T11:46:46.680Z,24.8
2017-03-26T11:47:46.462Z,24.84
2017-03-26T11:48:46.539Z,24.85
2017-03-26T11:49:46.214Z,24.95
2017-03-26T11:50:46.552Z,24.98
2017-03-26T11:51:46.833Z,25.08
2017-03-26T11:52:46.302Z,25.18
2017-03-26T11:53:46.337Z,25.33
2017-03-26T11:54:46.360Z,25.3
2017-03-26T11:55:46.383Z,25.58
2017-03-26T11:56:46.976Z,25.67
2017-03-26T11:57:46.751Z,25.79
2017-03-26T11:58:46.788Z,25.91
2017-03-26T11:59:46.825Z,26.09
2017-03-26T12:00:46.855Z,26.23
2017-03-26T12:01:46.820Z,26.37
2017-03-26T12:02:46.598Z,26.54
2017-03-26T12:03:46.621Z,26.66
2017-03-26T12:04:46.978Z,26.84
2017-03-26T12:05:46.998Z,26.99
2017-03-26T12:06:46.969Z,27.09
2017-03-26T12:07:47.062Z,27.24
2017-03-26T12:08:47.091Z,27.39
2017-03-26T12:09:46.811Z,27.43
2017-03-26T12:10:47.147Z,27.59
2017-03-26T12:11:47.430Z,27.75
2017-03-26T12:12:47.213Z,27.92
2017-03-26T12:13:47.259Z,27.96
2017-03-26T12:14:46.962Z,28.07
2017-03-26T12:15:47.299Z,28.19
2017-03-26T12:16:47.579Z,28.27
2017-03-26T12:17:47.369Z,28.41
2017-03-26T12:18:47.081Z,28.49
2017-03-26T12:19:46.802Z,28.51
2017-03-26T12:20:47.150Z,28.68
2017-03-26T12:21:47.424Z,28.77
2017-03-26T12:22:47.533Z,28.9
2017-03-26T12:23:47.563Z,28.98
2017-03-26T12:24:47.262Z,29.16
2017-03-26T12:25:47.614Z,29.09
2017-03-26T12:26:47.582Z,29.27
2017-03-26T12:27:47.064Z,29.42
2017-03-26T12:28:47.094Z,29.48
2017-03-26T12:29:47.742Z,29.63
2017-03-26T12:30:47.773Z,29.74
2017-03-26T12:31:48.055Z,29.76
2017-03-26T12:32:47.545Z,29.9
2017-03-26T12:33:47.574Z,29.98
2017-03-26T12:34:47.903Z,30.13
2017-03-26T12:35:47.931Z,30.22
2017-03-26T12:36:48.223Z,30.31
2017-03-26T12:37:47.688Z,30.37
2017-03-26T12:38:48.031Z,30.43
2017-03-26T12:39:47.753Z,30.46
2017-03-26T12:40:48.101Z,30.61
2017-03-26T12:41:48.385Z,30.7
2017-03-26T12:42:48.174Z,30.72
2017-03-26T12:43:48.205Z,30.77
2017-03-26T12:44:47.916Z,30.88
2017-03-26T12:45:48.262Z,30.84
2017-03-26T12:46:48.539Z,30.88
2017-03-26T12:47:48.329Z,30.92
2017-03-26T12:48:48.043Z,31.01
2017-03-26T12:49:48.394Z,31.13
2017-03-26T12:50:48.422Z,31.14
2017-03-26T12:51:48.403Z,31.25
2017-03-26T12:52:48.483Z,31.23
2017-03-26T12:53:48.527Z,31.19
2017-03-26T12:54:48.561Z,31.32
2017-03-26T12:55:48.579Z,31.36
2017-03-26T12:56:48.554Z,31.38